メインページ
METAR-TAF:

METAR-TAF

空港 :

メキシコシティ, メキシコ

メキシコ・シティ国際空港

緯度: 19-26N, 経度: 099-06W, 海抜: 2238m

現時点の気象観測

当レポートは1時間22分前の09:47(UTC)に作成
北/北東の風 5kt
気温 17°C
湿度 77%
気圧 1025 hPa
視程: 16.1km
高度2500ftの千切れ雲あり
高度8000ftの曇り

METAR: MMMX 200947Z 02005KT 10SM BKN025 OVC080 17/13 A3028 NOSIG RMK 8/57/ HZY BINOVC

時間: 06:09 (11:09 UTC)

予報

当レポートは6時間39分前の04:30(UTC)に作成
予報は20日の 06時(UTC)から 21日の 12時(UTC)まで有効
北東の風 5kt
視程: 9.7km
高度8000ftの雲は散在している
煙霧
20日の 1800時(UTC)から
北東の風 10kt
視程: 10km
高度2500ftの雲は散在している
高度20000ftの雲は散在している
20日の 23時(UTC)から 21日の 03時(UTC)まで一時的に
視程: 8.0km
高度2000ftの千切れ雲あり, 積乱雲.
激しい雷雨, 雨
21日の 0600時(UTC)から
北/北東の風 5kt
視程: 9.7km
高度2000ftの雲は散在している
高度20000ftの千切れ雲あり
煙霧

TAF: MMMX 200430Z 2006/2112 05005KT 6SM HZ SCT080 TX26/2021Z TN15/2012Z FM201800 04010KT P6SM SCT025 SCT200 TEMPO 2023/2103 5SM TSRA BKN020CB FM210600 03005KT 6SM HZ SCT020 BKN200

4,000以上の空港の気象観測と天気予報(METAR報とTAF報)

利用可能な観測所は地図上に黄色い丸と赤い丸で示す。

丸の上にカーソルを重ねると観測所名を参照できる。

次にクリックすると気象観測と天気予報を参照できる。

マップの切り替え:黒色「×」印の緑ボタンをクリックして拡大、「-」印の緑ボタンをクリックして縮小、緑色の三角印をクリックして隣りの地図に切り替え


METAR-TAF: